createdAt,value
2019-05-30T00:01:35.067Z,3.90
2019-05-30T00:04:05.016Z,3.80
2019-05-30T00:06:34.884Z,3.80
2019-05-30T00:09:07.893Z,3.80
2019-05-30T00:11:37.817Z,3.70
2019-05-30T00:14:07.805Z,3.70
2019-05-30T00:16:37.709Z,3.60
2019-05-30T00:19:07.764Z,3.60
2019-05-30T00:21:37.589Z,3.60
2019-05-30T00:24:08.321Z,3.60
2019-05-30T00:26:38.244Z,3.50
2019-05-30T00:29:08.082Z,3.50
2019-05-30T00:31:37.984Z,3.40
2019-05-30T00:34:07.908Z,3.40
2019-05-30T00:36:37.820Z,3.30
2019-05-30T00:39:08.114Z,3.30
2019-05-30T00:41:37.998Z,3.30
2019-05-30T00:44:07.948Z,3.20
2019-05-30T00:46:37.910Z,3.20
2019-05-30T00:49:07.808Z,3.10
2019-05-30T00:51:37.812Z,3.10
2019-05-30T00:54:07.898Z,3.10
2019-05-30T00:56:37.740Z,3.00
2019-05-30T00:59:07.709Z,3.00
2019-05-30T01:01:37.626Z,2.90
2019-05-30T01:04:07.595Z,2.90
2019-05-30T01:06:37.451Z,2.90
2019-05-30T01:09:07.675Z,2.80
2019-05-30T01:11:37.624Z,2.80
2019-05-30T01:14:07.620Z,2.80
2019-05-30T01:16:37.567Z,2.80
2019-05-30T01:19:07.437Z,2.70
2019-05-30T01:21:37.363Z,2.80
2019-05-30T01:24:07.710Z,2.80
2019-05-30T01:26:37.747Z,2.70
2019-05-30T01:29:07.896Z,2.70
2019-05-30T01:31:37.769Z,2.70
2019-05-30T01:34:07.939Z,2.70
2019-05-30T01:36:37.964Z,2.70
2019-05-30T01:39:08.638Z,2.60
2019-05-30T01:41:38.456Z,2.70
2019-05-30T01:44:08.449Z,2.60
2019-05-30T01:46:38.331Z,2.60
2019-05-30T01:49:08.742Z,2.60
2019-05-30T01:51:38.799Z,2.50
2019-05-30T01:54:08.911Z,2.50
2019-05-30T01:56:47.726Z,2.50
2019-05-30T01:59:17.583Z,2.50
2019-05-30T02:01:47.504Z,2.40
2019-05-30T02:04:17.468Z,2.40
2019-05-30T02:06:47.324Z,2.40
2019-05-30T02:09:17.227Z,2.40
2019-05-30T02:11:47.219Z,2.30
2019-05-30T02:14:17.049Z,2.30
2019-05-30T02:16:47.088Z,2.30
2019-05-30T02:19:16.947Z,2.20
2019-05-30T02:21:46.861Z,2.20
2019-05-30T02:24:16.938Z,2.20
2019-05-30T02:26:46.743Z,2.20
2019-05-30T02:29:16.555Z,2.20
2019-05-30T02:31:46.322Z,2.10
2019-05-30T02:34:16.283Z,2.10
2019-05-30T02:36:46.298Z,2.10
2019-05-30T02:39:16.264Z,2.00
2019-05-30T02:41:46.184Z,2.00
2019-05-30T02:44:16.126Z,2.00
2019-05-30T02:46:48.719Z,2.00
2019-05-30T02:49:18.617Z,2.00
2019-05-30T02:51:48.603Z,2.00
2019-05-30T02:54:18.446Z,1.90
2019-05-30T02:56:48.329Z,1.90
2019-05-30T02:59:18.197Z,2.00
2019-05-30T03:02:00.815Z,2.00
2019-05-30T03:04:19.460Z,1.90
2019-05-30T03:06:49.548Z,1.90
2019-05-30T03:09:19.522Z,1.90
2019-05-30T03:11:49.435Z,2.00
2019-05-30T03:14:20.097Z,2.00
2019-05-30T03:16:50.051Z,1.90
2019-05-30T03:19:20.066Z,2.00
2019-05-30T03:21:50.087Z,2.00
2019-05-30T03:24:20.071Z,2.10
2019-05-30T03:26:49.912Z,2.10
2019-05-30T03:29:20.070Z,2.10
2019-05-30T03:31:51.687Z,2.10
2019-05-30T03:34:27.375Z,2.10
2019-05-30T03:36:53.193Z,2.10
2019-05-30T03:39:23.119Z,2.20
2019-05-30T03:41:52.948Z,2.20
2019-05-30T03:44:22.905Z,2.20
2019-05-30T03:46:55.166Z,2.20
2019-05-30T03:49:28.025Z,2.30
2019-05-30T03:52:00.741Z,2.30
2019-05-30T03:54:31.308Z,2.40
2019-05-30T03:57:26.502Z,2.40
2019-05-30T04:00:02.601Z,2.50
2019-05-30T04:02:56.984Z,2.50
2019-05-30T04:05:24.627Z,2.60
2019-05-30T04:07:58.045Z,2.70
2019-05-30T04:10:33.536Z,2.90
2019-05-30T04:13:23.403Z,3.00
2019-05-30T04:15:53.311Z,3.10
2019-05-30T04:18:23.131Z,3.30
2019-05-30T04:20:53.045Z,3.40
2019-05-30T04:23:22.866Z,3.50
2019-05-30T04:25:52.760Z,3.70
2019-05-30T04:28:22.676Z,3.90
2019-05-30T04:30:52.525Z,4.00
2019-05-30T04:33:32.655Z,4.20
2019-05-30T04:35:53.897Z,4.50
2019-05-30T04:38:23.774Z,4.70
2019-05-30T04:40:53.741Z,5.00
2019-05-30T04:43:23.680Z,5.30
2019-05-30T04:45:53.571Z,5.50
2019-05-30T04:48:23.377Z,5.80
2019-05-30T04:50:53.223Z,6.00
2019-05-30T04:53:23.189Z,6.20
2019-05-30T04:55:53.118Z,6.40
2019-05-30T04:58:24.284Z,6.70
2019-05-30T05:00:54.471Z,7.00
2019-05-30T05:03:44.613Z,7.30
2019-05-30T05:05:55.787Z,7.60
2019-05-30T05:08:25.714Z,8.00
2019-05-30T05:10:56.085Z,8.30
2019-05-30T05:13:25.949Z,8.60
2019-05-30T05:15:55.873Z,8.80
2019-05-30T05:18:25.830Z,9.10
2019-05-30T05:20:55.711Z,9.40
2019-05-30T05:23:25.556Z,9.70
2019-05-30T05:26:01.013Z,10.10
2019-05-30T05:28:26.869Z,10.40
2019-05-30T05:30:59.824Z,10.70
2019-05-30T05:33:30.397Z,10.90
2019-05-30T05:36:00.417Z,11.20
2019-05-30T05:38:30.248Z,11.30
2019-05-30T05:41:00.137Z,11.50
2019-05-30T05:43:30.097Z,11.80
2019-05-30T05:45:59.885Z,12.00
2019-05-30T05:48:30.026Z,12.30
2019-05-30T05:50:59.889Z,12.50
2019-05-30T05:53:30.314Z,12.70
2019-05-30T05:56:00.125Z,12.90
2019-05-30T05:58:30.101Z,13.10
2019-05-30T06:01:00.007Z,13.30
2019-05-30T06:03:30.026Z,13.40
2019-05-30T06:05:59.801Z,13.50
2019-05-30T06:08:29.736Z,13.70
2019-05-30T06:10:59.576Z,13.80
2019-05-30T06:13:29.533Z,13.90
2019-05-30T06:15:59.543Z,14.10
2019-05-30T06:18:29.454Z,14.10
2019-05-30T06:20:59.527Z,14.30
2019-05-30T06:23:29.976Z,14.50
2019-05-30T06:25:59.980Z,14.60
2019-05-30T06:28:30.227Z,14.80
2019-05-30T06:31:00.045Z,14.90
2019-05-30T06:33:30.001Z,15.00
2019-05-30T06:36:00.136Z,15.10
2019-05-30T06:38:30.222Z,15.20
2019-05-30T06:41:00.171Z,15.30
2019-05-30T06:43:30.357Z,15.30
2019-05-30T06:46:00.298Z,15.40
2019-05-30T06:48:30.924Z,15.50
2019-05-30T06:51:01.178Z,15.60
2019-05-30T06:53:31.449Z,15.70
2019-05-30T06:56:01.558Z,15.80
2019-05-30T06:58:47.338Z,16.00
2019-05-30T07:01:03.495Z,16.20
2019-05-30T07:03:33.530Z,16.30
2019-05-30T07:06:06.475Z,16.60
2019-05-30T07:08:36.999Z,16.90
2019-05-30T07:11:07.256Z,17.10
2019-05-30T07:13:37.311Z,17.30
2019-05-30T07:16:07.122Z,17.40
2019-05-30T07:18:37.058Z,17.60
2019-05-30T07:21:07.091Z,17.80
2019-05-30T07:23:39.533Z,18.00
2019-05-30T07:26:08.717Z,18.10
2019-05-30T07:28:39.005Z,18.20
2019-05-30T07:31:08.863Z,18.40
2019-05-30T07:33:38.870Z,18.50
2019-05-30T07:36:08.729Z,18.60
2019-05-30T07:38:39.528Z,18.70
2019-05-30T07:41:09.429Z,18.70
2019-05-30T07:43:39.417Z,18.80
2019-05-30T07:46:09.370Z,18.80
2019-05-30T07:48:39.276Z,18.80
2019-05-30T07:51:09.303Z,18.90
2019-05-30T07:53:39.423Z,18.90
2019-05-30T07:56:09.432Z,18.90
2019-05-30T07:58:39.339Z,19.10
2019-05-30T08:01:09.513Z,19.30
2019-05-30T08:03:39.479Z,19.60
2019-05-30T08:06:09.354Z,19.70
2019-05-30T08:08:39.269Z,19.80
2019-05-30T08:11:10.341Z,19.90
2019-05-30T08:13:40.332Z,20.00
2019-05-30T08:16:10.190Z,20.10
2019-05-30T08:18:40.247Z,20.10
2019-05-30T08:21:10.123Z,20.20
2019-05-30T08:23:40.022Z,20.30
2019-05-30T08:26:09.889Z,20.30
2019-05-30T08:28:42.602Z,20.40
2019-05-30T08:31:11.356Z,20.60
2019-05-30T08:33:41.176Z,20.70
2019-05-30T08:36:11.196Z,20.70
2019-05-30T08:38:40.994Z,20.80
2019-05-30T08:41:11.063Z,20.90
2019-05-30T08:43:40.832Z,20.80
2019-05-30T08:46:10.955Z,20.80
2019-05-30T08:48:40.893Z,20.90
2019-05-30T08:51:10.896Z,20.90
2019-05-30T08:53:40.760Z,21.10
2019-05-30T08:56:10.655Z,21.30
2019-05-30T08:58:40.935Z,21.50
2019-05-30T09:01:11.196Z,21.60
2019-05-30T09:03:42.154Z,21.50
2019-05-30T09:06:12.251Z,21.40
2019-05-30T09:08:42.292Z,21.40
2019-05-30T09:11:12.185Z,21.40
2019-05-30T09:13:42.632Z,21.50
2019-05-30T09:16:13.137Z,21.50
2019-05-30T09:18:43.525Z,21.60
2019-05-30T09:21:13.378Z,21.70
2019-05-30T09:23:43.971Z,21.60
2019-05-30T09:26:14.013Z,21.60
2019-05-30T09:28:44.210Z,21.60
2019-05-30T09:31:14.225Z,21.50
2019-05-30T09:33:44.654Z,21.50
2019-05-30T09:36:14.967Z,21.50
2019-05-30T09:38:45.478Z,21.60
2019-05-30T09:41:15.662Z,21.50
2019-05-30T09:43:46.409Z,21.50
2019-05-30T09:46:16.524Z,21.40
2019-05-30T09:48:46.751Z,21.40
2019-05-30T09:51:16.707Z,21.40
2019-05-30T09:53:46.517Z,21.40
2019-05-30T09:56:16.436Z,21.30
2019-05-30T09:58:47.646Z,21.10
2019-05-30T10:01:17.795Z,21.10
2019-05-30T10:03:48.491Z,21.20
2019-05-30T10:06:28.870Z,21.20
2019-05-30T10:08:51.100Z,21.20
2019-05-30T10:11:21.138Z,21.30
2019-05-30T10:13:51.254Z,21.30
2019-05-30T10:16:22.477Z,21.30
2019-05-30T10:18:52.842Z,21.40
2019-05-30T10:21:23.095Z,21.40
2019-05-30T10:23:53.707Z,21.30
2019-05-30T10:26:23.722Z,21.40
2019-05-30T10:28:53.692Z,21.30
2019-05-30T10:31:23.597Z,21.30
2019-05-30T10:33:53.440Z,21.30
2019-05-30T10:36:23.402Z,21.30
2019-05-30T10:38:53.960Z,21.30
2019-05-30T10:41:23.851Z,21.30
2019-05-30T10:43:53.673Z,21.20
2019-05-30T10:46:23.537Z,21.30
2019-05-30T10:48:54.533Z,21.40
2019-05-30T10:51:24.725Z,21.30
2019-05-30T10:53:55.742Z,21.30
2019-05-30T10:56:27.945Z,21.40
2019-05-30T10:58:57.716Z,21.40
2019-05-30T11:01:27.716Z,21.40
2019-05-30T11:03:57.517Z,21.50
2019-05-30T11:07:01.128Z,21.50
2019-05-30T11:09:21.740Z,21.60
2019-05-30T11:11:52.963Z,21.70
2019-05-30T11:14:22.777Z,21.70
2019-05-30T11:16:53.892Z,21.70
2019-05-30T11:19:23.743Z,21.60
2019-05-30T11:21:54.599Z,21.60
2019-05-30T11:24:24.597Z,21.60
2019-05-30T11:26:55.545Z,21.60
2019-05-30T11:29:26.154Z,21.70
2019-05-30T11:31:56.979Z,21.70
2019-05-30T11:34:27.016Z,21.80
2019-05-30T11:36:57.273Z,21.90
2019-05-30T11:39:27.265Z,22.00
2019-05-30T11:41:57.656Z,22.00
2019-05-30T11:44:27.685Z,22.00
2019-05-30T11:46:57.746Z,22.10
2019-05-30T11:49:27.739Z,22.20
2019-05-30T11:51:57.877Z,22.20
2019-05-30T11:54:28.085Z,22.20
2019-05-30T11:56:58.145Z,22.20
2019-05-30T11:59:28.165Z,22.20
2019-05-30T12:01:58.478Z,22.40
2019-05-30T12:04:28.497Z,22.50
2019-05-30T12:06:58.886Z,22.80
2019-05-30T12:09:28.901Z,22.90
2019-05-30T12:11:59.234Z,23.10
2019-05-30T12:14:29.271Z,23.30
2019-05-30T12:16:59.477Z,23.30
2019-05-30T12:19:29.414Z,23.30
2019-05-30T12:21:59.913Z,23.10
2019-05-30T12:24:29.991Z,22.90
2019-05-30T12:27:00.128Z,22.80
2019-05-30T12:29:30.045Z,22.80
2019-05-30T12:32:00.686Z,22.90
2019-05-30T12:34:31.360Z,23.00
2019-05-30T12:37:02.826Z,23.30
2019-05-30T12:39:33.132Z,23.60
2019-05-30T12:42:03.350Z,23.70
2019-05-30T12:44:33.781Z,23.60
2019-05-30T12:47:04.480Z,23.60
2019-05-30T12:49:34.490Z,23.80
2019-05-30T12:52:05.875Z,24.00
2019-05-30T12:54:36.007Z,24.20
2019-05-30T12:57:07.057Z,24.40
2019-05-30T12:59:37.213Z,24.40
2019-05-30T13:02:07.323Z,24.50
2019-05-30T13:04:37.244Z,24.60
2019-05-30T13:07:07.678Z,24.60
2019-05-30T13:09:37.897Z,24.80
2019-05-30T13:12:07.911Z,24.80
2019-05-30T13:14:39.008Z,24.90
2019-05-30T13:17:08.822Z,24.90
2019-05-30T13:19:38.843Z,25.00
2019-05-30T13:22:08.753Z,25.10
2019-05-30T13:24:38.781Z,25.30
2019-05-30T13:27:08.945Z,25.00
2019-05-30T13:29:39.101Z,24.70
2019-05-30T13:32:11.097Z,24.70
2019-05-30T13:34:41.063Z,24.80
2019-05-30T13:37:10.900Z,24.70
2019-05-30T13:39:40.886Z,24.70
2019-05-30T13:42:10.707Z,24.80
2019-05-30T13:44:40.560Z,24.90
2019-05-30T13:47:10.664Z,25.10
2019-05-30T13:49:40.486Z,25.30
2019-05-30T13:52:10.385Z,25.30
2019-05-30T13:54:40.367Z,25.10
2019-05-30T13:57:10.243Z,25.10
2019-05-30T13:59:40.272Z,25.10
2019-05-30T14:02:10.319Z,25.00
2019-05-30T14:04:40.327Z,25.00
2019-05-30T14:07:10.521Z,24.90
2019-05-30T14:09:40.543Z,25.00
2019-05-30T14:12:10.700Z,25.20
2019-05-30T14:14:40.689Z,25.30
2019-05-30T14:17:13.259Z,25.30
2019-05-30T14:19:42.761Z,25.30
2019-05-30T14:22:12.583Z,25.10
2019-05-30T14:24:42.500Z,25.10
2019-05-30T14:27:12.467Z,25.10
2019-05-30T14:29:42.316Z,25.20
2019-05-30T14:32:12.390Z,25.30
2019-05-30T14:34:42.225Z,25.20
2019-05-30T14:37:12.603Z,25.10
2019-05-30T14:39:42.665Z,25.00
2019-05-30T14:42:13.285Z,25.00
2019-05-30T14:44:43.392Z,24.90
2019-05-30T14:47:13.365Z,24.70
2019-05-30T14:49:43.337Z,24.50
2019-05-30T14:52:13.397Z,24.30
2019-05-30T14:54:43.434Z,24.10
2019-05-30T14:57:13.283Z,23.80
2019-05-30T14:59:43.235Z,23.80
2019-05-30T15:02:13.306Z,23.60
2019-05-30T15:04:43.230Z,23.60
2019-05-30T15:07:13.643Z,23.50
2019-05-30T15:09:44.028Z,23.60
2019-05-30T15:12:13.991Z,23.50
2019-05-30T15:14:44.023Z,23.50
2019-05-30T15:17:14.361Z,23.60
2019-05-30T15:19:44.360Z,23.60
2019-05-30T15:22:17.071Z,23.60
2019-05-30T15:24:45.681Z,23.60
2019-05-30T15:27:16.292Z,23.60
2019-05-30T15:29:46.241Z,23.50
2019-05-30T15:32:16.581Z,23.40
2019-05-30T15:34:46.460Z,23.30
2019-05-30T15:37:16.984Z,23.10
2019-05-30T15:39:46.920Z,23.00
2019-05-30T15:42:17.730Z,22.80
2019-05-30T15:44:47.585Z,22.70
2019-05-30T15:47:18.480Z,22.70
2019-05-30T15:49:52.024Z,22.70
2019-05-30T15:52:20.055Z,22.70
2019-05-30T15:54:49.878Z,22.70
2019-05-30T15:57:19.720Z,22.70
2019-05-30T15:59:49.578Z,22.70
2019-05-30T16:02:20.478Z,22.80
2019-05-30T16:04:56.710Z,22.80
2019-05-30T16:07:26.536Z,22.90
2019-05-30T16:09:58.103Z,22.90
2019-05-30T16:12:28.790Z,22.90
2019-05-30T16:15:06.976Z,22.90
2019-05-30T16:17:50.714Z,22.80
2019-05-30T16:20:22.428Z,22.70
2019-05-30T16:23:05.385Z,22.60
2019-05-30T16:25:37.585Z,22.50
2019-05-30T16:28:10.163Z,22.40
2019-05-30T16:33:34.712Z,22.30
2019-05-30T16:36:08.099Z,22.10
2019-05-30T16:38:38.426Z,22.00
2019-05-30T16:41:09.831Z,21.90
2019-05-30T16:43:58.005Z,21.80
2019-05-30T16:46:30.295Z,21.70
2019-05-30T16:49:01.049Z,21.60
2019-05-30T16:51:31.828Z,21.50
2019-05-30T16:54:08.507Z,21.40
2019-05-30T16:56:46.718Z,21.30
2019-05-30T16:59:29.801Z,21.20
2019-05-30T17:02:08.875Z,21.10
2019-05-30T17:04:48.611Z,21.10
2019-05-30T17:07:27.557Z,21.20
2019-05-30T17:09:58.012Z,21.20
2019-05-30T17:12:29.396Z,21.20
2019-05-30T17:15:01.194Z,21.10
2019-05-30T17:17:38.042Z,21.10
2019-05-30T17:20:09.510Z,21.00
2019-05-30T17:23:07.216Z,21.00
2019-05-30T17:25:37.543Z,20.90
2019-05-30T17:28:22.359Z,20.80
2019-05-30T17:30:57.712Z,20.60
2019-05-30T17:33:42.898Z,20.50
2019-05-30T17:36:19.983Z,20.40
2019-05-30T17:39:10.507Z,20.30
2019-05-30T17:41:40.450Z,20.30
2019-05-30T17:44:16.348Z,20.20
2019-05-30T17:46:48.581Z,20.20
2019-05-30T17:49:32.639Z,20.20
2019-05-30T17:52:13.941Z,20.10
2019-05-30T17:54:46.456Z,20.00
2019-05-30T17:57:26.692Z,19.90
2019-05-30T18:00:10.925Z,19.80
2019-05-30T18:02:42.670Z,19.80
2019-05-30T18:05:15.735Z,19.70
2019-05-30T18:07:46.026Z,19.70
2019-05-30T18:10:16.142Z,19.60
2019-05-30T18:12:46.669Z,19.50
2019-05-30T18:15:18.293Z,19.50
2019-05-30T18:17:48.159Z,19.50
2019-05-30T18:20:19.645Z,19.40
2019-05-30T18:22:49.487Z,19.40
2019-05-30T18:25:19.532Z,19.30
2019-05-30T18:27:49.419Z,19.30
2019-05-30T18:30:19.761Z,19.20
2019-05-30T18:32:49.605Z,19.20
2019-05-30T18:35:19.660Z,19.10
2019-05-30T18:37:49.525Z,19.00
2019-05-30T18:40:31.092Z,19.00
2019-05-30T18:43:00.979Z,18.90
2019-05-30T18:45:41.801Z,18.90
2019-05-30T18:48:14.969Z,18.80
2019-05-30T18:50:44.775Z,18.80
2019-05-30T18:53:14.583Z,18.70
2019-05-30T18:55:44.426Z,18.70
2019-05-30T18:58:14.275Z,18.70
2019-05-30T19:00:44.133Z,18.60
2019-05-30T19:03:14.043Z,18.60
2019-05-30T19:05:44.017Z,18.50
2019-05-30T19:08:13.880Z,18.40
2019-05-30T19:10:43.905Z,18.30
2019-05-30T19:13:16.061Z,18.30
2019-05-30T19:15:46.062Z,18.20
2019-05-30T19:18:16.312Z,18.10
2019-05-30T19:20:46.575Z,18.00
2019-05-30T19:23:18.486Z,18.00
2019-05-30T19:25:48.330Z,17.90
2019-05-30T19:28:18.604Z,17.80
2019-05-30T19:30:48.703Z,17.70
2019-05-30T19:33:20.940Z,17.70
2019-05-30T19:35:50.784Z,17.60
2019-05-30T19:38:20.609Z,17.60
2019-05-30T19:40:50.495Z,17.50
2019-05-30T19:43:20.304Z,17.50
2019-05-30T19:45:50.226Z,17.40
2019-05-30T19:48:20.085Z,17.40
2019-05-30T19:50:50.009Z,17.30
2019-05-30T19:53:19.887Z,17.30
2019-05-30T19:55:50.593Z,17.30
2019-05-30T19:58:20.449Z,17.20
2019-05-30T20:00:58.528Z,17.20
2019-05-30T20:03:35.801Z,17.20
2019-05-30T20:05:53.886Z,17.30
2019-05-30T20:08:23.762Z,17.30
2019-05-30T20:10:53.685Z,17.30
2019-05-30T20:13:23.850Z,17.30
2019-05-30T20:15:56.534Z,17.30
2019-05-30T20:18:26.417Z,17.30
2019-05-30T20:20:57.812Z,17.30
2019-05-30T20:23:30.050Z,17.30
2019-05-30T20:25:59.912Z,17.20
2019-05-30T20:28:29.779Z,17.10
2019-05-30T20:31:02.426Z,17.10
2019-05-30T20:33:32.304Z,17.00
2019-05-30T20:36:02.157Z,17.00
2019-05-30T20:38:32.090Z,17.00
2019-05-30T20:41:01.920Z,17.00
2019-05-30T20:43:33.353Z,16.90
2019-05-30T20:46:03.200Z,16.90
2019-05-30T20:48:33.132Z,16.90
2019-05-30T20:51:03.346Z,16.80
2019-05-30T20:53:33.233Z,16.80
2019-05-30T20:56:03.102Z,16.70
2019-05-30T20:58:33.278Z,16.60
2019-05-30T21:01:03.401Z,16.50
2019-05-30T21:03:33.410Z,16.40
2019-05-30T21:06:04.010Z,16.30
2019-05-30T21:08:34.908Z,16.20
2019-05-30T21:11:04.991Z,16.10
2019-05-30T21:13:36.298Z,16.00
2019-05-30T21:16:07.650Z,15.90
2019-05-30T21:18:37.794Z,15.70
2019-05-30T21:21:07.656Z,15.60
2019-05-30T21:23:38.288Z,15.50
2019-05-30T21:26:08.251Z,15.40
2019-05-30T21:28:38.703Z,15.30
2019-05-30T21:31:09.975Z,15.20
2019-05-30T21:33:41.600Z,15.10
2019-05-30T21:36:11.710Z,14.90
2019-05-30T21:38:41.951Z,14.90
2019-05-30T21:41:11.800Z,14.80
2019-05-30T21:43:42.383Z,14.60
2019-05-30T21:46:12.270Z,14.60
2019-05-30T21:48:42.918Z,14.50
2019-05-30T21:51:13.126Z,14.40
2019-05-30T21:53:43.497Z,14.40
2019-05-30T21:56:13.608Z,14.30
2019-05-30T21:58:44.095Z,14.20
2019-05-30T22:01:34.182Z,14.10
2019-05-30T22:04:04.867Z,14.10
2019-05-30T22:06:34.746Z,14.00
2019-05-30T22:09:07.836Z,14.00
2019-05-30T22:11:37.661Z,13.90
2019-05-30T22:14:07.760Z,13.80
2019-05-30T22:16:37.546Z,13.80
2019-05-30T22:19:07.800Z,13.70
2019-05-30T22:21:37.631Z,13.70
2019-05-30T22:24:07.455Z,13.60
2019-05-30T22:26:37.272Z,13.60
2019-05-30T22:29:07.128Z,13.60
2019-05-30T22:31:36.929Z,13.50
2019-05-30T22:34:06.912Z,13.50
2019-05-30T22:36:36.729Z,13.40
2019-05-30T22:39:08.978Z,13.40
2019-05-30T22:41:38.982Z,13.30
2019-05-30T22:44:08.981Z,13.30
2019-05-30T22:46:41.430Z,13.20
2019-05-30T22:49:11.331Z,13.10
2019-05-30T22:51:41.199Z,13.10
2019-05-30T22:54:11.043Z,13.00
2019-05-30T22:56:40.922Z,12.90
2019-05-30T22:59:10.719Z,12.90
2019-05-30T23:01:40.553Z,12.80
2019-05-30T23:04:12.276Z,12.80
2019-05-30T23:06:42.042Z,12.70
2019-05-30T23:09:11.942Z,12.70
2019-05-30T23:11:41.790Z,12.60
2019-05-30T23:14:11.582Z,12.60
2019-05-30T23:16:41.569Z,12.60
2019-05-30T23:19:11.369Z,12.50
2019-05-30T23:21:41.397Z,12.50
2019-05-30T23:24:11.352Z,12.50
2019-05-30T23:26:41.435Z,12.40
2019-05-30T23:29:11.702Z,12.40
2019-05-30T23:31:41.522Z,12.40
2019-05-30T23:34:11.466Z,12.40
2019-05-30T23:36:41.293Z,12.40
2019-05-30T23:39:11.173Z,12.30
2019-05-30T23:41:41.007Z,12.30
2019-05-30T23:44:11.932Z,12.30
2019-05-30T23:46:42.032Z,12.30
2019-05-30T23:49:11.854Z,12.30
2019-05-30T23:51:41.745Z,12.30
2019-05-30T23:54:11.541Z,12.20
2019-05-30T23:56:42.514Z,12.20
2019-05-30T23:59:12.551Z,12.10
